Time;durP1;ratioP1;P1;durP2;ratioP2;P2;SDS_P1;SDS_P2;PMS_P1;PMS_P2;Temp;Humidity;BMP_temperature;BMP_pressure;BME280_temperature;BME280_humidity;BME280_pressure;Samples;Min_cycle;Max_cycle;Signal;HPM_P1;HPM_P2
2020/12/04 16:15:50;;;;;;;4.10;1.45;;;7.60;99.90;;;;;;5086294;28;20112;-60
2020/12/04 16:18:16;;;;;;;7.25;2.35;;;7.50;99.90;;;;;;5085873;28;20414;-60
2020/12/04 16:20:41;;;;;;;5.40;1.52;;;7.60;99.90;;;;;;5085977;28;20039;-62
2020/12/04 16:23:07;;;;;;;5.00;1.60;;;7.60;99.90;;;;;;5080759;28;20471;-61
2020/12/04 16:25:32;;;;;;;5.15;3.25;;;7.60;99.90;;;;;;5068188;28;20082;-60
2020/12/04 16:27:58;;;;;;;2.45;1.92;;;7.60;99.90;;;;;;5085315;28;20180;-62
2020/12/04 16:30:23;;;;;;;4.03;2.45;;;7.60;99.90;;;;;;5085697;28;20050;-61
2020/12/04 16:32:49;;;;;;;6.38;2.50;;;7.60;99.90;;;;;;5094845;28;20445;-62
2020/12/04 16:35:15;;;;;;;7.35;4.40;;;7.60;99.90;;;;;;5086414;28;20032;-62
2020/12/04 16:37:40;;;;;;;5.63;3.60;;;7.60;99.90;;;;;;5051815;28;20020;-61
2020/12/04 16:40:06;;;;;;;4.10;2.53;;;7.60;99.90;;;;;;5078811;28;20468;-63
2020/12/04 16:42:32;;;;;;;6.30;2.60;;;7.60;99.90;;;;;;5074361;28;20387;-62
2020/12/04 16:44:57;;;;;;;4.32;2.42;;;7.60;99.90;;;;;;5079396;28;20024;-62
2020/12/04 16:47:23;;;;;;;3.85;2.45;;;7.60;99.90;;;;;;5086059;28;20044;-61
2020/12/04 16:49:48;;;;;;;4.75;2.15;;;7.60;99.90;;;;;;5077033;28;20377;-61
2020/12/04 16:52:14;;;;;;;4.97;2.40;;;7.60;99.90;;;;;;5079969;28;20036;-61
2020/12/04 16:54:40;;;;;;;2.97;1.50;;;7.60;99.90;;;;;;5078193;28;20334;-62
2020/12/04 16:57:05;;;;;;;3.70;1.90;;;7.70;99.90;;;;;;5074744;28;20032;-63
2020/12/04 16:59:31;;;;;;;3.35;2.20;;;7.70;99.90;;;;;;5085974;28;20478;-62
2020/12/04 17:01:58;;;;;;;3.10;2.13;;;7.70;99.90;;;;;;5077113;28;20416;-63
2020/12/04 17:04:24;;;;;;;2.63;1.77;;;7.60;99.90;;;;;;5079592;28;20043;-63
2020/12/04 17:06:50;;;;;;;5.20;2.15;;;7.50;99.90;;;;;;5081065;28;20399;-62
2020/12/04 17:09:16;;;;;;;8.55;5.75;;;7.50;99.90;;;;;;5074434;28;20091;-63
2020/12/04 17:11:45;;;;;;;7.88;5.30;;;7.50;99.90;;;;;;5072763;28;20061;-61
2020/12/04 17:14:11;;;;;;;4.78;3.75;;;7.40;99.90;;;;;;5071234;28;20029;-61
2020/12/04 17:16:36;;;;;;;7.13;2.78;;;7.40;99.90;;;;;;5069568;28;20027;-62
2020/12/04 17:19:02;;;;;;;7.90;2.72;;;7.40;99.90;;;;;;5091353;28;20053;-63
2020/12/04 17:21:28;;;;;;;5.65;2.42;;;7.30;99.90;;;;;;5102745;28;20493;-62
2020/12/04 17:23:54;;;;;;;7.70;3.10;;;7.30;99.90;;;;;;5102403;28;20036;-62
2020/12/04 17:26:19;;;;;;;6.32;1.88;;;7.30;99.90;;;;;;5091978;28;20109;-61
2020/12/04 17:28:45;;;;;;;6.60;4.00;;;7.30;99.90;;;;;;5068390;28;20490;-62
2020/12/04 17:31:11;;;;;;;3.85;2.25;;;7.20;99.90;;;;;;5051145;28;20033;-62
2020/12/04 17:33:37;;;;;;;5.15;2.45;;;7.20;99.90;;;;;;5068613;28;20024;-61
2020/12/04 17:36:03;;;;;;;3.92;2.28;;;7.10;99.90;;;;;;5058345;28;20036;-62
2020/12/04 17:38:29;;;;;;;6.40;2.30;;;7.10;99.90;;;;;;5059294;28;20033;-59
2020/12/04 17:40:55;;;;;;;4.63;1.65;;;7.10;99.90;;;;;;5058094;28;20044;-60
2020/12/04 17:43:21;;;;;;;4.68;1.98;;;7.10;99.90;;;;;;5057909;28;20029;-60
2020/12/04 17:45:47;;;;;;;6.20;1.98;;;7.10;99.90;;;;;;5057667;28;20398;-59
2020/12/04 17:48:13;;;;;;;4.57;2.05;;;7.10;99.90;;;;;;5060751;28;20127;-64
2020/12/04 17:50:42;;;;;;;4.85;2.22;;;7.00;99.90;;;;;;5064265;28;20029;-62
2020/12/04 17:53:12;;;;;;;2.88;1.70;;;7.10;99.90;;;;;;5060400;28;20533;-62
2020/12/04 17:55:38;;;;;;;3.63;2.13;;;7.00;99.90;;;;;;5056907;28;20468;-59
2020/12/04 17:58:04;;;;;;;13.48;3.70;;;7.10;99.90;;;;;;5059273;28;20017;-63
2020/12/04 18:00:33;;;;;;;3.95;2.53;;;7.10;99.90;;;;;;5058030;28;20403;-61
2020/12/04 18:02:58;;;;;;;6.32;3.53;;;7.10;99.90;;;;;;5058630;28;20025;-63
2020/12/04 18:05:24;;;;;;;9.23;3.92;;;7.10;99.90;;;;;;5054830;28;20043;-61
2020/12/04 18:07:49;;;;;;;9.23;5.55;;;7.20;99.90;;;;;;5060365;28;20033;-60
2020/12/04 18:10:15;;;;;;;6.03;3.17;;;7.20;99.90;;;;;;5057717;28;20048;-61
2020/12/04 18:12:40;;;;;;;6.60;3.47;;;7.20;99.90;;;;;;5063036;28;20795;-61
2020/12/04 18:15:06;;;;;;;3.25;2.45;;;7.30;99.90;;;;;;5061843;28;20040;-62
2020/12/04 18:17:32;;;;;;;4.40;2.90;;;7.30;99.90;;;;;;5061338;28;20023;-62
2020/12/04 18:19:57;;;;;;;3.60;3.13;;;7.30;99.90;;;;;;5060350;28;20057;-63
2020/12/04 18:22:24;;;;;;;6.05;2.95;;;7.30;99.90;;;;;;5055945;28;20107;-61
2020/12/04 18:24:49;;;;;;;4.38;3.50;;;7.20;99.90;;;;;;5058043;28;20040;-60
2020/12/04 18:27:15;;;;;;;5.75;3.83;;;7.20;99.90;;;;;;5053373;28;20037;-59
2020/12/04 18:29:40;;;;;;;5.75;4.28;;;7.20;99.90;;;;;;5052419;28;20090;-62
2020/12/04 18:32:06;;;;;;;11.70;4.38;;;7.20;99.90;;;;;;5055469;28;20040;-61
2020/12/04 18:34:32;;;;;;;3.80;2.53;;;7.10;99.90;;;;;;5058051;28;20044;-63
2020/12/04 18:36:57;;;;;;;4.55;2.90;;;7.10;99.90;;;;;;5039664;28;20331;-62
2020/12/04 18:39:23;;;;;;;8.27;4.00;;;7.10;99.90;;;;;;5053099;28;20024;-63
2020/12/04 18:41:49;;;;;;;7.93;3.70;;;7.10;99.90;;;;;;5060684;28;20021;-63
2020/12/04 18:44:15;;;;;;;5.72;2.85;;;7.10;99.90;;;;;;5060256;28;20031;-62
2020/12/04 18:46:41;;;;;;;8.75;2.90;;;7.00;99.90;;;;;;5059378;28;20108;-59
2020/12/04 18:49:07;;;;;;;5.85;2.85;;;7.00;99.90;;;;;;5057829;28;20115;-58
2020/12/04 18:51:39;;;;;;;4.53;2.97;;;7.00;99.90;;;;;;5058725;28;20032;-62
2020/12/04 18:54:05;;;;;;;3.65;2.58;;;7.00;99.90;;;;;;5070911;28;20024;-58
2020/12/04 18:56:30;;;;;;;6.78;2.47;;;7.00;99.90;;;;;;5075823;28;20532;-62
2020/12/04 18:58:56;;;;;;;4.85;2.28;;;6.90;99.90;;;;;;5078472;22;20024;-56
2020/12/04 19:01:24;;;;;;;4.18;2.90;;;6.90;99.90;;;;;;5086821;28;20020;-57
2020/12/04 19:03:49;;;;;;;7.95;2.65;;;6.80;99.90;;;;;;5082377;28;20028;-55
2020/12/04 19:06:15;;;;;;;3.58;2.40;;;6.80;99.90;;;;;;5084434;28;20568;-56
2020/12/04 19:08:41;;;;;;;3.92;2.72;;;6.80;99.90;;;;;;5086518;28;20117;-57
2020/12/04 19:11:06;;;;;;;4.65;2.85;;;6.70;99.90;;;;;;5088879;28;20035;-60
2020/12/04 19:13:32;;;;;;;4.15;2.53;;;6.70;99.90;;;;;;5086262;28;20028;-57
2020/12/04 19:15:58;;;;;;;5.53;3.00;;;6.70;99.90;;;;;;5084879;28;20028;-58
2020/12/04 19:18:24;;;;;;;4.70;2.83;;;6.70;99.90;;;;;;5089406;28;20359;-56
2020/12/04 19:20:50;;;;;;;4.85;2.50;;;6.70;99.90;;;;;;5089218;28;20024;-59
2020/12/04 19:23:15;;;;;;;6.03;2.95;;;6.60;99.90;;;;;;5090143;28;20039;-56
2020/12/04 19:25:41;;;;;;;6.03;2.97;;;6.60;99.90;;;;;;5084372;28;20055;-56
2020/12/04 19:28:07;;;;;;;5.82;3.15;;;6.60;99.90;;;;;;5070651;28;20440;-57
2020/12/04 19:30:33;;;;;;;10.30;3.58;;;6.50;99.90;;;;;;5094041;28;20059;-56
2020/12/04 19:32:59;;;;;;;3.92;3.05;;;6.50;99.90;;;;;;5095375;28;20563;-54
2020/12/04 19:35:24;;;;;;;13.25;4.78;;;6.40;99.90;;;;;;5091283;28;20036;-58
2020/12/04 19:37:50;;;;;;;9.75;6.65;;;6.40;99.90;;;;;;5089215;28;20028;-55
2020/12/04 19:40:17;;;;;;;8.68;5.03;;;6.40;99.90;;;;;;5089611;28;20020;-56
2020/12/04 19:42:43;;;;;;;7.68;4.93;;;6.40;99.90;;;;;;5088575;28;20020;-56
2020/12/04 19:45:10;;;;;;;8.02;4.97;;;6.40;99.90;;;;;;5087762;28;20035;-58
2020/12/04 19:47:40;;;;;;;8.30;4.90;;;6.40;99.90;;;;;;5089304;28;20093;-59
2020/12/04 19:50:05;;;;;;;7.32;3.88;;;6.30;99.90;;;;;;5088884;28;20028;-53
2020/12/04 19:52:31;;;;;;;8.75;4.50;;;6.30;99.90;;;;;;5089830;28;20729;-58
2020/12/04 19:54:56;;;;;;;11.98;5.80;;;6.30;99.90;;;;;;5089295;28;20125;-58
2020/12/04 19:57:22;;;;;;;11.63;7.00;;;6.30;99.90;;;;;;5089383;28;20039;-56
2020/12/04 19:59:47;;;;;;;12.68;6.15;;;6.40;99.90;;;;;;5088919;28;20110;-57
2020/12/04 20:02:13;;;;;;;8.13;5.22;;;6.30;99.90;;;;;;5089096;28;20476;-55
2020/12/04 20:04:38;;;;;;;8.82;4.40;;;6.20;99.90;;;;;;5088587;28;20028;-56
2020/12/04 20:07:04;;;;;;;11.82;4.43;;;6.20;99.90;;;;;;5089120;28;20028;-58
2020/12/04 20:09:30;;;;;;;8.82;4.25;;;6.20;99.90;;;;;;5088761;28;20081;-57
2020/12/04 20:11:55;;;;;;;10.88;5.60;;;6.20;99.90;;;;;;5089171;28;20036;-54
2020/12/04 20:14:21;;;;;;;11.02;5.30;;;6.20;99.90;;;;;;5088953;28;20409;-56
2020/12/04 20:16:47;;;;;;;14.13;5.13;;;6.20;99.90;;;;;;5087855;28;20024;-54
2020/12/04 20:19:14;;;;;;;8.40;4.53;;;6.20;99.90;;;;;;5088768;28;20095;-54
2020/12/04 20:21:40;;;;;;;11.20;5.00;;;6.20;99.90;;;;;;5066875;28;20086;-56
2020/12/04 20:24:05;;;;;;;10.13;3.83;;;6.00;99.90;;;;;;5088853;28;20024;-56
2020/12/04 20:26:31;;;;;;;6.38;3.78;;;5.90;99.90;;;;;;5087398;28;20101;-56
2020/12/04 20:28:57;;;;;;;4.65;3.20;;;5.80;99.90;;;;;;5088244;28;20032;-58
2020/12/04 20:31:22;;;;;;;7.30;4.10;;;5.80;99.90;;;;;;5088439;28;20032;-57
2020/12/04 20:33:48;;;;;;;8.05;4.00;;;5.80;99.90;;;;;;5085395;28;20036;-56
2020/12/04 20:36:17;;;;;;;8.13;3.67;;;5.70;99.90;;;;;;5088481;28;20081;-56
2020/12/04 20:38:42;;;;;;;7.13;3.63;;;5.70;99.90;;;;;;5088511;28;20143;-55
2020/12/04 20:41:09;;;;;;;5.90;3.35;;;5.70;99.90;;;;;;5089025;28;20197;-56
2020/12/04 20:43:34;;;;;;;10.07;4.60;;;5.70;99.90;;;;;;5089014;28;20687;-55
2020/12/04 20:46:00;;;;;;;6.50;3.97;;;5.80;99.90;;;;;;5088538;28;20020;-54
2020/12/04 20:48:25;;;;;;;12.00;3.85;;;5.70;99.90;;;;;;5088538;28;20028;-56
2020/12/04 20:50:51;;;;;;;5.80;3.42;;;5.50;99.90;;;;;;5066821;28;20030;-57
2020/12/04 20:53:16;;;;;;;5.78;3.70;;;5.20;99.90;;;;;;5086493;28;20012;-54
2020/12/04 20:55:44;;;;;;;9.90;4.25;;;5.30;99.90;;;;;;5087866;28;20461;-59
2020/12/04 20:58:11;;;;;;;7.18;3.05;;;5.00;99.90;;;;;;5088214;28;20048;-59
2020/12/04 21:00:36;;;;;;;6.60;4.25;;;4.80;99.90;;;;;;5088008;28;20953;-59
2020/12/04 21:03:04;;;;;;;8.52;5.25;;;4.80;99.90;;;;;;5093081;28;20103;-57
2020/12/04 21:05:30;;;;;;;10.35;5.22;;;4.60;99.90;;;;;;5071920;28;20032;-55
2020/12/04 21:07:56;;;;;;;10.98;5.32;;;4.60;99.90;;;;;;5091411;28;20050;-57
2020/12/04 21:10:22;;;;;;;8.25;5.57;;;4.70;99.90;;;;;;5091374;28;20161;-58
2020/12/04 21:12:48;;;;;;;17.75;6.50;;;4.70;99.90;;;;;;5091896;28;20087;-57
2020/12/04 21:15:14;;;;;;;13.63;6.72;;;4.60;99.90;;;;;;5086467;28;20035;-59
2020/12/04 21:17:39;;;;;;;21.02;6.93;;;4.60;99.90;;;;;;5091780;28;20024;-57
2020/12/04 21:20:05;;;;;;;11.13;6.35;;;4.50;99.90;;;;;;5092233;28;20032;-57
2020/12/04 21:22:31;;;;;;;14.18;7.13;;;4.50;99.90;;;;;;5092757;28;20391;-54
2020/12/04 21:25:01;;;;;;;9.77;6.18;;;4.40;99.90;;;;;;5054000;28;20044;-54
2020/12/04 21:27:28;;;;;;;12.07;6.03;;;4.40;99.90;;;;;;5075081;28;20028;-56
2020/12/04 21:29:54;;;;;;;10.63;6.03;;;4.30;99.90;;;;;;5091273;28;20119;-54
2020/12/04 21:32:25;;;;;;;9.48;5.30;;;4.20;99.90;;;;;;5068640;28;20036;-58
2020/12/04 21:34:53;;;;;;;10.05;6.63;;;4.10;99.90;;;;;;5069252;28;20030;-58
2020/12/04 21:37:19;;;;;;;9.18;5.32;;;4.00;99.90;;;;;;5074413;28;20024;-58
2020/12/04 21:39:44;;;;;;;6.40;4.18;;;4.00;99.90;;;;;;5057179;28;20069;-60
2020/12/04 21:42:10;;;;;;;13.50;5.90;;;4.00;99.90;;;;;;5079696;28;20085;-55
2020/12/04 21:44:37;;;;;;;8.43;5.68;;;4.10;99.90;;;;;;5090169;28;20038;-58
2020/12/04 21:47:03;;;;;;;9.80;5.80;;;4.10;99.90;;;;;;5062312;28;20042;-59
2020/12/04 21:49:35;;;;;;;8.82;6.10;;;4.10;99.90;;;;;;5089292;28;20028;-58
2020/12/04 21:52:04;;;;;;;13.55;5.28;;;4.20;99.90;;;;;;5089500;28;20024;-58
